Time;durP1;ratioP1;P1;durP2;ratioP2;P2;SDS_P1;SDS_P2;PMS_P1;PMS_P2;Temp;Humidity;BMP_temperature;BMP_pressure;BME280_temperature;BME280_humidity;BME280_pressure;Samples;Min_cycle;Max_cycle;Signal;HPM_P1;HPM_P2
2021/03/08 00:00:35;;;;;;;20.70;10.85;;;;;;;-0.21;76.77;98070.03;5053700;28;19944;-75
2021/03/08 00:03:03;;;;;;;17.88;11.07;;;;;;;-0.19;76.23;98070.66;5053681;28;20095;-75
2021/03/08 00:05:28;;;;;;;19.50;11.77;;;;;;;-0.13;75.91;98053.63;5055358;28;20017;-75
2021/03/08 00:07:54;;;;;;;29.40;12.32;;;;;;;-0.06;75.41;98070.47;5058894;28;20029;-85
2021/03/08 00:10:20;;;;;;;;;;;;;;;-0.16;76.06;98076.38;5057957;28;20036;-83
2021/03/08 00:12:47;;;;;;;21.13;10.80;;;;;;;-0.27;76.84;98066.38;5056057;28;19966;-85
2021/03/08 00:15:14;;;;;;;20.48;11.02;;;;;;;-0.22;76.04;98055.78;5055310;28;20016;-85
2021/03/08 00:17:39;;;;;;;20.90;10.98;;;;;;;-0.27;76.67;98065.56;5054314;28;20597;-76
2021/03/08 00:20:08;;;;;;;23.05;12.35;;;;;;;-0.13;75.77;98062.50;5053016;28;20115;-80
2021/03/08 00:22:34;;;;;;;27.98;12.90;;;;;;;-0.24;75.99;98074.00;5052833;28;20033;-76
2021/03/08 00:24:59;;;;;;;23.55;11.63;;;;;;;-0.36;76.66;98065.03;5053180;28;20497;-83
2021/03/08 00:27:24;;;;;;;;;;;;;;;-0.25;76.10;98066.97;5052576;28;20074;-76
2021/03/08 00:29:50;;;;;;;22.98;11.85;;;;;;;-0.46;76.86;98070.09;5051980;28;20309;-75
2021/03/08 00:32:15;;;;;;;;;;;;;;;-0.45;77.25;98062.88;5052468;28;20025;-79
2021/03/08 00:34:41;;;;;;;23.60;11.70;;;;;;;-0.41;76.91;98050.63;5051562;28;19995;-76
2021/03/08 00:37:06;;;;;;;;;;;;;;;-0.46;76.87;98056.66;5053142;28;20037;-84
2021/03/08 00:39:32;;;;;;;20.25;9.43;;;;;;;-0.46;76.95;98056.66;5053920;28;19949;-76
2021/03/08 00:41:58;;;;;;;20.55;10.75;;;;;;;-0.63;77.38;98047.56;5053076;28;20033;-79
2021/03/08 00:44:23;;;;;;;19.67;10.38;;;;;;;-0.73;77.88;98041.88;5053654;28;20044;-77
2021/03/08 00:46:49;;;;;;;16.58;8.95;;;;;;;-0.85;78.78;98054.38;5054166;28;20025;-78
2021/03/08 00:49:14;;;;;;;13.60;7.97;;;;;;;-1.03;79.37;98040.91;5055453;28;20500;-79
2021/03/08 00:51:40;;;;;;;;;;;;;;;-0.97;79.99;98058.81;5057276;28;20033;-77
2021/03/08 00:54:05;;;;;;;15.05;8.43;;;;;;;-0.89;79.63;98053.16;5052081;28;19925;-78
2021/03/08 00:56:30;;;;;;;;;;;;;;;-0.85;79.69;98051.69;5053428;28;20129;-76
2021/03/08 00:58:57;;;;;;;19.80;10.30;;;;;;;-0.94;80.32;98055.69;5052418;28;20336;-78
2021/03/08 01:01:22;;;;;;;12.80;8.60;;;;;;;-0.86;80.03;98050.03;5050912;28;20518;-75
2021/03/08 01:03:48;;;;;;;15.60;8.65;;;;;;;-0.68;79.08;98050.06;5052482;28;20115;-76
2021/03/08 01:06:13;;;;;;;19.77;9.35;;;;;;;-0.63;79.06;98036.81;5052327;28;20374;-78
2021/03/08 01:08:39;;;;;;;;;;;;;;;-0.69;79.32;98043.09;5053519;28;20063;-78
2021/03/08 01:11:04;;;;;;;19.30;10.75;;;;;;;-0.75;79.70;98038.59;5052472;28;20332;-74
2021/03/08 01:13:29;;;;;;;;;;;;;;;-0.93;80.38;98038.53;5052797;28;20037;-76
2021/03/08 01:15:55;;;;;;;18.80;9.68;;;;;;;-0.85;81.01;98044.47;5052461;28;19962;-82
2021/03/08 01:18:21;;;;;;;;;;;;;;;-0.91;80.68;98033.78;5053089;28;20028;-84
2021/03/08 01:20:47;;;;;;;14.50;8.85;;;;;;;-0.84;80.78;98040.72;5052414;28;19919;-80
2021/03/08 01:23:13;;;;;;;16.73;9.20;;;;;;;-0.85;80.30;98032.91;5052915;28;20083;-78
2021/03/08 01:25:39;;;;;;;16.02;11.23;;;;;;;-0.83;80.36;98033.50;5051026;28;20029;-80
2021/03/08 01:28:05;;;;;;;18.17;10.48;;;;;;;-0.89;80.48;98024.47;5052259;28;20496;-80
2021/03/08 01:30:48;;;;;;;22.60;10.73;;;;;;;-0.78;79.80;98029.09;5052196;28;20021;-82
2021/03/08 01:33:14;;;;;;;14.00;9.40;;;;;;;-0.82;79.93;98027.09;5051205;28;20036;-77
2021/03/08 01:35:40;;;;;;;18.40;10.65;;;;;;;-0.88;80.33;98022.59;5052074;28;20021;-80
2021/03/08 01:38:06;;;;;;;20.48;10.70;;;;;;;-0.82;79.67;98016.34;5052367;28;20090;-77
2021/03/08 01:40:35;;;;;;;22.77;9.93;;;;;;;-0.82;79.66;98021.72;5051991;28;20135;-77
2021/03/08 01:43:01;;;;;;;20.08;11.05;;;;;;;-0.95;79.97;98011.94;5051513;28;20105;-78
2021/03/08 01:45:26;;;;;;;17.25;11.27;;;;;;;-1.00;79.84;98014.44;5051835;28;20055;-79
2021/03/08 01:47:52;;;;;;;;;;;;;;;-0.97;80.17;98013.19;5052438;28;20045;-78
2021/03/08 01:50:31;;;;;;;19.40;10.57;;;;;;;-1.00;80.59;98013.63;5051267;28;19916;-85
2021/03/08 01:52:58;;;;;;;14.50;8.77;;;;;;;-1.08;80.94;98002.13;5052962;28;20053;-82
2021/03/08 01:55:24;;;;;;;18.42;10.00;;;;;;;-1.07;81.05;98003.75;5050628;28;20402;-79
2021/03/08 01:57:50;;;;;;;21.08;10.60;;;;;;;-1.09;80.86;97981.69;5034432;28;20091;-80
2021/03/08 02:00:16;;;;;;;17.75;9.95;;;;;;;-0.98;80.78;97982.84;5031793;28;20030;-81
2021/03/08 02:02:43;;;;;;;20.23;10.05;;;;;;;-1.08;81.24;97987.91;5031568;28;20079;-80
2021/03/08 02:05:13;;;;;;;17.58;10.55;;;;;;;-1.18;81.56;97983.03;5030489;28;20041;-80
2021/03/08 02:07:41;;;;;;;22.75;12.40;;;;;;;-1.27;82.14;97970.94;5030779;28;20094;-79
2021/03/08 02:10:09;;;;;;;16.67;10.13;;;;;;;-1.29;82.38;97986.44;5031962;28;20021;-81
2021/03/08 02:12:43;;;;;;;15.82;9.40;;;;;;;-1.26;82.26;97983.31;5031669;28;20159;-81
2021/03/08 02:15:27;;;;;;;19.00;11.20;;;;;;;-1.26;82.43;97986.00;5030996;28;20025;-75
2021/03/08 02:18:12;;;;;;;24.73;10.35;;;;;;;-1.24;82.40;97991.13;5031182;28;20029;-75
2021/03/08 02:20:37;;;;;;;16.10;10.15;;;;;;;-1.31;82.75;97985.00;5029629;28;20071;-76
2021/03/08 02:23:38;;;;;;;22.23;11.45;;;;;;;-1.23;82.57;97982.88;5031190;28;20064;-76
2021/03/08 02:26:09;;;;;;;20.10;10.60;;;;;;;-1.18;82.30;97985.72;5046514;28;20387;-76
2021/03/08 02:29:01;;;;;;;19.00;10.70;;;;;;;-1.16;82.22;97988.19;5062905;28;20494;-76
2021/03/08 02:31:28;;;;;;;18.75;11.23;;;;;;;-1.15;81.96;97979.91;5030767;28;20474;-77
2021/03/08 02:34:11;;;;;;;17.58;10.82;;;;;;;-1.24;81.72;97983.91;5029478;28;20033;-76
2021/03/08 02:36:41;;;;;;;21.17;10.43;;;;;;;-1.14;81.47;97975.38;5030595;28;20029;-78
2021/03/08 02:39:14;;;;;;;15.27;9.02;;;;;;;-1.22;81.95;97971.09;5029934;28;20033;-76
2021/03/08 02:41:42;;;;;;;18.42;9.88;;;;;;;-1.31;82.46;97963.53;5030333;28;20477;-75
2021/03/08 02:44:12;;;;;;;24.15;12.38;;;;;;;-1.21;82.20;97958.50;5030772;28;20030;-76
2021/03/08 02:46:41;;;;;;;22.58;12.10;;;;;;;-1.16;81.83;97967.53;5030926;28;20083;-76
2021/03/08 02:49:12;;;;;;;20.88;11.38;;;;;;;-1.29;82.54;97958.78;5029387;28;20041;-77
2021/03/08 02:51:43;;;;;;;19.23;10.35;;;;;;;-1.10;82.27;97965.84;5029343;28;20398;-75
2021/03/08 02:54:10;;;;;;;17.58;11.85;;;;;;;-1.16;81.78;97961.34;5030788;28;20120;-77
2021/03/08 02:56:40;;;;;;;19.00;10.85;;;;;;;-1.31;82.46;97961.69;5030626;28;20060;-77
2021/03/08 02:59:06;;;;;;;21.92;11.45;;;;;;;-1.36;82.40;97964.22;5030687;28;20406;-77
2021/03/08 03:01:35;;;;;;;22.08;11.93;;;;;;;-1.28;82.22;97961.22;5030733;28;20033;-76
2021/03/08 03:04:01;;;;;;;23.52;11.45;;;;;;;-1.37;82.09;97959.88;5031048;28;20017;-76
2021/03/08 03:06:30;;;;;;;18.77;10.88;;;;;;;-1.42;81.92;97957.03;5032830;28;20026;-75
2021/03/08 03:08:56;;;;;;;25.02;11.68;;;;;;;-1.33;81.44;97950.34;5035361;28;20104;-79
2021/03/08 03:11:25;;;;;;;18.70;10.40;;;;;;;-1.30;81.75;97966.00;5032243;28;20056;-76
2021/03/08 03:13:53;;;;;;;23.60;11.40;;;;;;;-1.30;81.39;97960.66;5062467;28;20028;-77
2021/03/08 03:16:19;;;;;;;22.30;11.57;;;;;;;-1.50;81.92;97964.53;5030913;28;20505;-79
2021/03/08 03:18:49;;;;;;;22.13;11.30;;;;;;;-1.47;81.77;97958.75;5030488;28;20095;-76
2021/03/08 03:21:17;;;;;;;21.80;10.93;;;;;;;-1.39;81.59;97959.28;5030201;28;20025;-78
2021/03/08 03:23:43;;;;;;;21.00;12.88;;;;;;;-1.40;81.39;97944.22;5029002;28;20536;-78
2021/03/08 03:26:09;;;;;;;15.20;9.85;;;;;;;-1.39;81.37;97951.25;5030072;28;21146;-78
2021/03/08 03:28:36;;;;;;;18.40;10.35;;;;;;;-1.36;81.14;97961.53;5032252;28;20128;-83
2021/03/08 03:31:03;;;;;;;19.08;10.93;;;;;;;-1.45;81.40;97962.84;5031476;28;20029;-83
2021/03/08 03:33:29;;;;;;;18.05;11.77;;;;;;;-1.56;81.49;97958.16;5031101;28;20490;-83
2021/03/08 03:35:55;;;;;;;21.42;11.95;;;;;;;-1.67;82.42;97954.34;5030825;28;20395;-78
2021/03/08 03:38:21;;;;;;;18.15;10.57;;;;;;;-1.54;82.31;97953.44;5030846;28;20122;-83
2021/03/08 03:40:49;;;;;;;21.05;11.18;;;;;;;-1.56;82.14;97958.16;5033866;28;20064;-81
2021/03/08 03:43:15;;;;;;;25.33;12.82;;;;;;;-1.63;82.71;97954.75;5040087;28;20485;-84
2021/03/08 03:45:41;;;;;;;22.67;9.80;;;;;;;-1.79;83.49;97947.22;5049461;28;20021;-82
2021/03/08 03:48:06;;;;;;;;;;;;;;;-1.58;82.81;97967.47;5033106;28;20420;-85
2021/03/08 03:50:32;;;;;;;18.60;9.88;;;;;;;-1.81;83.83;97968.03;5028877;28;19964;-81
2021/03/08 03:52:57;;;;;;;;;;;;;;;-1.65;84.25;97959.47;5032727;28;20026;-84
2021/03/08 03:55:24;;;;;;;15.95;9.73;;;;;;;-1.64;84.63;97958.44;5033941;28;19917;-80
2021/03/08 03:58:18;;;;;;;14.98;10.95;;;;;;;-1.79;84.83;97960.63;5034186;28;20033;-78
2021/03/08 04:01:04;;;;;;;24.27;10.77;;;;;;;-1.85;85.63;97956.13;5033471;28;20383;-78
2021/03/08 04:03:38;;;;;;;16.63;10.45;;;;;;;-1.98;85.97;97950.84;5049450;28;20140;-82
2021/03/08 04:06:06;;;;;;;17.40;9.55;;;;;;;-1.87;85.57;97966.22;5034022;28;20052;-82
2021/03/08 04:08:33;;;;;;;18.52;10.23;;;;;;;-2.00;86.00;97948.38;5034594;28;20030;-81
2021/03/08 04:11:03;;;;;;;19.00;11.18;;;;;;;-1.89;85.51;97962.97;5035837;28;20177;-80
2021/03/08 04:13:31;;;;;;;18.00;11.68;;;;;;;-1.94;85.90;97960.13;5034207;28;20041;-82
2021/03/08 04:15:57;;;;;;;22.13;10.35;;;;;;;-1.94;86.02;97960.13;5033870;28;20541;-80
2021/03/08 04:18:25;;;;;;;14.55;9.73;;;;;;;-1.81;85.16;97947.44;5034072;28;20033;-81
2021/03/08 04:20:54;;;;;;;19.27;9.93;;;;;;;-1.75;84.94;97956.47;5033189;28;20037;-80
2021/03/08 04:23:21;;;;;;;19.45;10.82;;;;;;;-1.87;85.14;97955.50;5033442;28;20025;-83
2021/03/08 04:25:48;;;;;;;14.13;8.68;;;;;;;-1.93;85.69;97957.22;5034851;28;20044;-81
2021/03/08 04:28:14;;;;;;;17.17;10.70;;;;;;;-1.96;85.95;97954.97;5035794;28;20053;-84
2021/03/08 04:30:43;;;;;;;21.38;10.52;;;;;;;-1.77;85.29;97953.19;5034187;28;20030;-80
2021/03/08 04:33:09;;;;;;;13.70;9.70;;;;;;;-1.72;84.81;97956.03;5035905;28;20059;-77
2021/03/08 04:35:35;;;;;;;16.67;10.63;;;;;;;-1.71;84.65;97946.94;5040491;28;20025;-80
2021/03/08 04:38:03;;;;;;;19.25;9.27;;;;;;;-1.64;84.75;97959.28;5053673;28;20504;-82
2021/03/08 04:40:28;;;;;;;23.10;9.65;;;;;;;-1.57;84.19;97955.72;5052822;28;20025;-81
2021/03/08 04:42:54;;;;;;;18.58;10.80;;;;;;;-1.76;84.36;97944.13;5051823;28;20430;-84
2021/03/08 04:45:21;;;;;;;17.98;10.48;;;;;;;-1.54;84.24;97963.34;5053366;28;21071;-80
2021/03/08 04:47:47;;;;;;;18.50;9.38;;;;;;;-1.76;84.49;97957.50;5052853;28;20033;-78
2021/03/08 04:50:15;;;;;;;23.05;11.23;;;;;;;-1.78;84.78;97959.56;5053048;28;20493;-78
2021/03/08 04:52:45;;;;;;;20.65;10.45;;;;;;;-1.80;84.92;97953.63;5052680;28;20120;-77
2021/03/08 04:55:12;;;;;;;13.43;9.80;;;;;;;-1.72;84.91;97956.03;5052953;28;20084;-83
2021/03/08 04:57:39;;;;;;;18.20;9.63;;;;;;;-1.64;84.33;97958.44;5051223;28;20060;-81
2021/03/08 05:00:07;;;;;;;18.17;10.82;;;;;;;-1.56;84.50;97960.03;5052876;28;20048;-81
2021/03/08 05:02:34;;;;;;;20.83;9.95;;;;;;;-1.56;84.29;97955.50;5051925;28;20063;-77
2021/03/08 05:05:02;;;;;;;16.55;9.75;;;;;;;-1.51;83.86;97965.56;5051534;28;20426;-78
2021/03/08 05:07:30;;;;;;;18.80;9.27;;;;;;;-1.53;83.48;97964.94;5051497;28;20107;-78
2021/03/08 05:09:56;;;;;;;18.55;10.40;;;;;;;-1.48;83.38;97965.97;5051891;28;20033;-77
2021/03/08 05:12:26;;;;;;;24.02;11.13;;;;;;;-1.34;82.37;97966.66;5052404;28;20036;-79
2021/03/08 05:14:54;;;;;;;17.65;9.90;;;;;;;-1.46;82.93;97969.25;5047232;28;20032;-78
2021/03/08 05:17:22;;;;;;;17.48;10.10;;;;;;;-1.29;82.29;97966.84;5042541;28;20022;-79
2021/03/08 05:19:49;;;;;;;24.60;10.10;;;;;;;-1.30;82.21;97966.00;5032725;28;20124;-80
2021/03/08 05:22:16;;;;;;;14.80;8.98;;;;;;;-1.38;82.71;97965.47;5049497;28;20025;-79
2021/03/08 05:24:48;;;;;;;20.08;10.90;;;;;;;-1.31;82.81;97975.09;5051217;28;20390;-78
2021/03/08 05:27:15;;;;;;;15.57;9.45;;;;;;;-1.28;82.35;97974.66;5054497;28;20190;-80
2021/03/08 05:29:42;;;;;;;21.17;9.50;;;;;;;-1.12;82.08;97978.63;5053193;28;20021;-79
2021/03/08 05:32:14;;;;;;;16.65;9.75;;;;;;;-1.14;81.87;97968.13;5052003;28;20031;-79
2021/03/08 05:34:44;;;;;;;20.02;10.50;;;;;;;-1.38;82.63;97968.94;5051543;28;20033;-78
2021/03/08 05:37:15;;;;;;;17.90;8.05;;;;;;;-1.47;83.13;97967.59;5053964;28;20036;-75
2021/03/08 05:39:44;;;;;;;20.38;10.80;;;;;;;-1.46;83.29;97965.72;5048918;28;20025;-75
2021/03/08 05:42:12;;;;;;;18.63;9.13;;;;;;;-1.42;83.47;97972.31;5049246;28;20025;-75
2021/03/08 05:45:16;;;;;;;21.33;8.82;;;;;;;-1.33;83.58;97977.19;5048876;28;20025;-74
2021/03/08 05:48:21;;;;;;;14.30;9.65;;;;;;;-1.22;83.21;97973.75;5049070;28;20421;-75
2021/03/08 05:50:53;;;;;;;18.65;9.63;;;;;;;-1.51;83.52;97962.91;5047440;28;20478;-76
2021/03/08 05:53:49;;;;;;;12.98;8.35;;;;;;;-1.37;83.58;97970.59;5047103;28;20478;-76
2021/03/08 05:56:47;;;;;;;10.80;7.93;;;;;;;-1.18;82.78;97974.97;5047313;28;20037;-78
2021/03/08 05:59:22;;;;;;;14.15;8.73;;;;;;;-1.29;82.97;97980.25;5048152;28;20043;-78
2021/03/08 06:02:02;;;;;;;15.02;9.32;;;;;;;-1.33;83.41;97974.50;5050022;28;20025;-77
2021/03/08 06:05:09;;;;;;;13.00;8.73;;;;;;;-1.25;82.41;97978.75;5045965;28;20120;-73
2021/03/08 06:08:08;;;;;;;16.10;10.25;;;;;;;-0.98;81.43;97982.03;5048640;28;20029;-76
2021/03/08 06:10:39;;;;;;;18.83;10.25;;;;;;;-1.12;80.78;97968.72;5037290;28;20033;-75
2021/03/08 06:13:10;;;;;;;16.73;10.55;;;;;;;-1.09;80.66;97984.38;5049529;28;20510;-75
2021/03/08 06:15:37;;;;;;;16.48;9.68;;;;;;;-0.94;79.76;97983.22;5047416;28;20432;-76
2021/03/08 06:18:09;;;;;;;17.55;9.25;;;;;;;-0.98;79.78;97984.72;5044459;28;20108;-74
2021/03/08 06:20:35;;;;;;;14.85;9.10;;;;;;;-0.78;78.82;97993.38;5049131;28;20450;-75
2021/03/08 06:23:02;;;;;;;15.75;8.85;;;;;;;-0.92;78.98;97994.56;5050622;28;20025;-76
2021/03/08 06:25:29;;;;;;;18.30;9.27;;;;;;;-0.64;78.46;97990.34;5048923;28;20124;-74
2021/03/08 06:27:56;;;;;;;19.83;9.75;;;;;;;-0.48;78.79;98010.41;5049918;28;20481;-76
2021/03/08 06:30:24;;;;;;;21.10;9.65;;;;;;;-0.36;77.11;98005.94;5049368;28;20111;-75
2021/03/08 06:32:50;;;;;;;18.13;10.40;;;;;;;-0.43;77.67;98018.63;5052185;28;20029;-76
2021/03/08 06:35:16;;;;;;;17.30;10.90;;;;;;;-0.34;77.05;98013.75;5051095;28;20036;-78
2021/03/08 06:37:42;;;;;;;16.63;10.50;;;;;;;-0.17;76.99;98021.00;5052613;28;20049;-75
2021/03/08 06:40:09;;;;;;;;;;;;;;;0.22;76.21;98013.47;5049046;28;20033;-76
2021/03/08 06:42:34;;;;;;;11.60;7.35;;;;;;;0.30;75.15;98013.97;5048910;28;19995;-75
2021/03/08 06:44:59;;;;;;;;;;;;;;;0.47;75.68;98023.00;5050919;28;20497;-75
2021/03/08 06:47:25;;;;;;;16.58;9.40;;;;;;;0.88;75.52;98024.88;5050015;28;20406;-75
2021/03/08 06:49:53;;;;;;;;;;;;;;;0.51;74.12;98031.44;5047612;28;20028;-74
2021/03/08 06:52:18;;;;;;;13.35;8.80;;;;;;;0.70;74.56;98038.41;5048140;28;19943;-75
2021/03/08 06:54:58;;;;;;;21.13;10.55;;;;;;;1.10;72.72;98029.72;5050460;28;20028;-75
2021/03/08 06:57:26;;;;;;;14.93;9.32;;;;;;;0.93;72.49;98033.09;5050532;28;20021;-74
2021/03/08 07:00:00;;;;;;;10.82;8.13;;;;;;;0.85;74.57;98041.47;5049663;28;20474;-75
2021/03/08 07:02:43;;;;;;;19.83;9.43;;;;;;;1.70;73.02;98044.56;5048591;28;20029;-74
2021/03/08 07:05:11;;;;;;;20.48;9.98;;;;;;;1.80;72.79;98044.78;5049758;28;20021;-74
2021/03/08 07:07:59;;;;;;;20.95;10.15;;;;;;;1.74;69.89;98051.13;5048953;28;20116;-74
2021/03/08 07:10:33;;;;;;;21.73;10.02;;;;;;;1.70;69.02;98043.72;5049860;28;20037;-75
2021/03/08 07:12:59;;;;;;;20.58;10.90;;;;;;;1.60;68.38;98052.41;5049328;28;20039;-75
2021/03/08 07:15:24;;;;;;;17.17;10.63;;;;;;;1.42;68.76;98047.16;5048755;28;20048;-74
2021/03/08 07:17:50;;;;;;;16.35;9.82;;;;;;;1.68;67.94;98054.78;5048150;28;20108;-77
2021/03/08 07:20:16;;;;;;;;;;;;;;;1.23;69.40;98057.22;5049283;28;20037;-74
2021/03/08 07:22:46;;;;;;;17.45;9.75;;;;;;;1.30;69.57;98065.19;5050722;28;20427;-75
2021/03/08 07:25:32;;;;;;;16.77;11.30;;;;;;;0.98;70.61;98072.75;5049119;28;20616;-74
2021/03/08 07:27:59;;;;;;;17.38;9.60;;;;;;;1.08;70.56;98052.31;5051135;28;20142;-74
2021/03/08 07:30:36;;;;;;;20.73;11.52;;;;;;;0.82;71.49;98066.16;5054636;28;20470;-74
2021/03/08 07:33:05;;;;;;;21.90;10.32;;;;;;;0.90;71.32;98071.25;5053388;28;20059;-74
2021/03/08 07:35:48;;;;;;;20.90;11.85;;;;;;;1.74;68.95;98061.91;5054377;28;20024;-74
2021/03/08 07:38:27;;;;;;;17.48;10.48;;;;;;;1.98;67.04;98071.59;5054216;28;20414;-75
2021/03/08 07:41:13;;;;;;;18.77;11.70;;;;;;;2.88;64.65;98069.00;5055451;28;20025;-75
2021/03/08 07:43:41;;;;;;;17.20;10.65;;;;;;;3.37;61.86;98072.00;5057385;28;20371;-76
2021/03/08 07:46:25;;;;;;;14.93;10.75;;;;;;;3.60;61.31;98077.25;5056492;28;20025;-74
2021/03/08 07:48:50;;;;;;;16.60;9.57;;;;;;;2.78;63.18;98074.25;5054513;28;20025;-76
2021/03/08 07:51:15;;;;;;;13.82;10.43;;;;;;;3.35;62.48;98074.16;5054367;28;20450;-75
2021/03/08 07:53:41;;;;;;;18.27;10.73;;;;;;;3.40;61.62;98072.34;5054076;28;20429;-75
2021/03/08 07:56:09;;;;;;;15.23;10.90;;;;;;;2.85;63.31;98085.72;5054353;28;20123;-75
2021/03/08 07:58:36;;;;;;;15.93;10.25;;;;;;;3.05;63.49;98077.97;5054031;28;20100;-74
2021/03/08 08:01:09;;;;;;;18.42;11.40;;;;;;;2.88;63.60;98079.81;5053951;28;20416;-75
2021/03/08 08:03:38;;;;;;;20.23;11.52;;;;;;;2.82;64.03;98075.41;5054108;28;20029;-75
2021/03/08 08:06:05;;;;;;;18.73;10.77;;;;;;;3.27;62.38;98077.25;5053904;28;20033;-75
2021/03/08 08:08:33;;;;;;;44.53;15.35;;;;;;;3.26;62.19;98078.34;5053891;28;20465;-74
2021/03/08 08:11:00;;;;;;;17.40;9.38;;;;;;;3.43;61.92;98071.03;5052668;28;20112;-75
2021/03/08 08:13:40;;;;;;;16.65;10.07;;;;;;;4.43;58.51;98084.31;5053917;28;20028;-75
2021/03/08 08:16:08;;;;;;;16.10;9.75;;;;;;;5.39;55.41;98081.50;5053261;28;20151;-75
2021/03/08 08:18:38;;;;;;;15.05;9.77;;;;;;;5.90;53.75;98082.72;5054722;28;20025;-75
2021/03/08 08:21:04;;;;;;;14.23;10.02;;;;;;;7.00;50.47;98080.72;5053479;28;20401;-75
2021/03/08 08:23:35;;;;;;;12.95;9.38;;;;;;;7.94;48.07;98080.16;5053374;28;20028;-75
2021/03/08 08:26:01;;;;;;;12.85;8.02;;;;;;;9.82;43.59;98083.53;5053396;28;20048;-75
2021/03/08 08:28:28;;;;;;;18.15;8.20;;;;;;;11.08;39.95;98090.31;5053238;28;20469;-75
2021/03/08 08:30:58;;;;;;;14.13;8.20;;;;;;;11.35;38.86;98087.72;5053044;28;20036;-75
2021/03/08 08:33:28;;;;;;;15.63;8.65;;;;;;;11.38;38.84;98087.13;5053184;28;20049;-75
2021/03/08 08:36:10;;;;;;;14.48;9.38;;;;;;;10.63;40.14;98098.00;5053411;28;20428;-77
2021/03/08 08:38:54;;;;;;;14.60;10.52;;;;;;;10.35;41.54;98092.59;5051857;28;20045;-75
2021/03/08 08:41:22;;;;;;;16.13;10.05;;;;;;;12.02;38.73;98099.28;5052735;28;20032;-76
2021/03/08 08:44:08;;;;;;;19.50;10.93;;;;;;;11.74;39.72;98087.41;5052685;28;20013;-75
2021/03/08 08:46:41;;;;;;;22.25;9.90;;;;;;;10.85;39.64;98097.47;5053078;28;20029;-75
2021/03/08 08:49:10;;;;;;;13.13;8.43;;;;;;;11.96;38.45;98095.00;5059293;28;20499;-76
2021/03/08 08:51:53;;;;;;;15.40;9.75;;;;;;;11.46;38.32;98096.59;5059698;28;20033;-75
2021/03/08 08:54:28;;;;;;;16.67;8.98;;;;;;;11.62;38.19;98090.56;5057739;28;20049;-76
2021/03/08 08:57:09;;;;;;;13.88;9.40;;;;;;;12.20;38.00;98103.88;5051489;28;20055;-77
2021/03/08 08:59:37;;;;;;;9.32;7.65;;;;;;;11.46;38.02;98099.34;5053048;28;20087;-76
2021/03/08 09:02:28;;;;;;;9.85;6.32;;;;;;;11.01;38.16;98106.28;5053306;28;20740;-74
2021/03/08 09:04:53;;;;;;;11.93;7.85;;;;;;;12.81;34.93;98104.31;5052957;28;20025;-76
2021/03/08 09:07:29;;;;;;;9.70;6.72;;;;;;;11.23;36.68;98110.09;5052272;28;20043;-75
2021/03/08 09:10:01;;;;;;;8.88;6.72;;;;;;;12.01;36.26;98101.19;5052313;28;20392;-75
2021/03/08 09:12:37;;;;;;;12.57;7.38;;;;;;;12.58;35.11;98101.78;5050771;28;20060;-76
2021/03/08 09:15:07;;;;;;;12.10;7.57;;;;;;;12.24;35.61;98102.97;5052303;28;20024;-75
2021/03/08 09:17:46;;;;;;;10.45;7.20;;;;;;;12.01;36.40;98108.59;5051319;28;20032;-75
2021/03/08 09:20:12;;;;;;;8.63;6.57;;;;;;;11.32;36.66;98096.53;5051923;28;20033;-75
2021/03/08 09:22:51;;;;;;;10.05;6.85;;;;;;;11.64;36.63;98101.25;5052154;28;20025;-76
2021/03/08 09:25:30;;;;;;;10.50;7.15;;;;;;;12.52;34.98;98094.78;5050746;28;20118;-75
2021/03/08 09:27:58;;;;;;;10.98;6.40;;;;;;;12.84;34.46;98095.47;5052030;28;20033;-76
2021/03/08 09:30:27;;;;;;;10.93;7.53;;;;;;;12.53;36.26;98090.91;5051891;28;20067;-75
2021/03/08 09:32:54;;;;;;;10.93;8.05;;;;;;;12.02;36.29;98088.31;5051995;28;20380;-75
2021/03/08 09:35:25;;;;;;;9.38;6.30;;;;;;;13.00;34.28;98086.94;5050787;28;20469;-75
2021/03/08 09:37:56;;;;;;;8.38;6.45;;;;;;;13.00;34.71;98079.47;5051525;28;20499;-75
2021/03/08 09:40:32;;;;;;;15.82;7.45;;;;;;;12.99;34.24;98088.03;5050303;28;20041;-75
2021/03/08 09:42:58;;;;;;;9.70;7.88;;;;;;;12.05;34.92;98076.72;5052580;28;20950;-75
2021/03/08 09:45:31;;;;;;;12.15;6.68;;;;;;;13.29;33.62;98084.63;5052266;28;21046;-75
2021/03/08 09:47:59;;;;;;;13.73;7.55;;;;;;;13.14;33.89;98074.81;5052529;28;20025;-76
2021/03/08 09:50:29;;;;;;;11.40;7.07;;;;;;;12.77;34.31;98077.78;5051972;28;20142;-75
2021/03/08 09:52:55;;;;;;;9.65;6.15;;;;;;;13.15;34.31;98081.13;5051823;28;20037;-75
2021/03/08 09:55:24;;;;;;;9.88;6.80;;;;;;;12.77;34.16;98064.88;5051595;28;20059;-75
2021/03/08 09:57:50;;;;;;;15.05;8.10;;;;;;;12.97;33.62;98071.06;5050067;28;20492;-76
2021/03/08 10:00:21;;;;;;;8.88;6.85;;;;;;;14.34;32.27;98055.63;5051291;28;20065;-76
2021/03/08 10:02:46;;;;;;;11.45;6.97;;;;;;;13.73;32.94;98068.19;5051291;28;20070;-76
2021/03/08 10:05:13;;;;;;;10.63;5.95;;;;;;;14.37;31.59;98061.31;5051131;28;20017;-76
2021/03/08 10:07:54;;;;;;;15.07;8.73;;;;;;;14.35;31.53;98062.72;5051135;28;20074;-75
2021/03/08 10:10:22;;;;;;;12.77;8.27;;;;;;;13.48;33.15;98055.06;5051049;28;20104;-76
2021/03/08 10:12:58;;;;;;;15.55;7.72;;;;;;;15.54;30.41;98051.19;5051213;28;20033;-75
2021/03/08 10:15:23;;;;;;;9.75;6.97;;;;;;;15.03;31.02;98051.94;5050999;28;20137;-75
2021/03/08 10:18:00;;;;;;;13.88;8.88;;;;;;;14.65;31.11;98055.56;5051395;28;20541;-76
2021/03/08 10:20:31;;;;;;;19.95;7.72;;;;;;;15.84;30.09;98048.56;5050658;28;20037;-76
2021/03/08 10:22:56;;;;;;;11.60;7.65;;;;;;;14.03;32.63;98044.59;5050984;28;20053;-75
2021/03/08 10:25:27;;;;;;;13.95;9.23;;;;;;;13.85;32.81;98048.34;5050799;28;20483;-76
2021/03/08 10:28:00;;;;;;;11.25;8.50;;;;;;;13.89;33.15;98044.69;5050812;28;20495;-75
2021/03/08 10:30:31;;;;;;;16.60;8.32;;;;;;;15.13;31.53;98055.53;5050801;28;20027;-76
2021/03/08 10:33:02;;;;;;;10.73;8.00;;;;;;;16.06;30.03;98040.91;5049363;28;20032;-75
2021/03/08 10:35:31;;;;;;;11.18;7.60;;;;;;;17.19;28.59;98053.06;5051037;28;20021;-75
2021/03/08 10:37:57;;;;;;;13.80;9.27;;;;;;;16.36;28.92;98044.53;5050800;28;20049;-74
2021/03/08 10:40:23;;;;;;;17.58;9.13;;;;;;;16.55;28.52;98046.91;5050746;28;20040;-72
2021/03/08 10:42:49;;;;;;;12.05;7.85;;;;;;;16.23;29.28;98041.97;5050735;28;20078;-75
2021/03/08 10:45:15;;;;;;;12.73;8.35;;;;;;;15.73;29.27;98031.53;5050750;28;20093;-73
2021/03/08 10:47:41;;;;;;;12.35;7.03;;;;;;;15.80;29.77;98037.38;5050856;28;20059;-75
2021/03/08 10:50:07;;;;;;;17.63;10.60;;;;;;;15.82;29.41;98029.56;5050545;28;20021;-76
2021/03/08 10:52:34;;;;;;;20.75;13.70;;;;;;;15.81;29.13;98036.25;5050615;28;20036;-75
2021/03/08 10:55:02;;;;;;;15.35;9.13;;;;;;;17.21;27.14;98031.41;5050652;28;20485;-74
2021/03/08 10:57:28;;;;;;;11.98;7.85;;;;;;;16.35;28.80;98028.31;5050627;28;20386;-73
2021/03/08 10:59:57;;;;;;;15.57;9.55;;;;;;;16.41;28.26;98025.00;5050606;28;20029;-73
2021/03/08 11:02:24;;;;;;;11.82;7.57;;;;;;;15.95;28.66;98034.09;5049648;28;20496;-74
2021/03/08 11:04:52;;;;;;;11.35;7.50;;;;;;;15.10;30.40;98028.63;5050662;28;20033;-73
2021/03/08 11:07:33;;;;;;;13.13;7.70;;;;;;;15.79;29.35;98024.72;5050266;28;20029;-73
2021/03/08 11:09:58;;;;;;;9.90;6.57;;;;;;;16.18;28.37;98020.06;5050649;28;20048;-72
2021/03/08 11:12:24;;;;;;;13.15;7.32;;;;;;;15.53;29.19;98015.69;5050349;28;20068;-73
2021/03/08 11:14:52;;;;;;;9.13;6.65;;;;;;;16.07;28.83;98014.91;5050334;28;20029;-74
2021/03/08 11:17:49;;;;;;;9.95;7.00;;;;;;;16.04;28.85;98012.81;5050557;28;20021;-74
2021/03/08 11:20:22;;;;;;;12.23;7.15;;;;;;;15.91;28.90;98015.78;5049090;28;20040;-73
2021/03/08 11:22:59;;;;;;;11.38;7.72;;;;;;;16.14;28.51;98013.59;5050376;28;20423;-73
2021/03/08 11:25:46;;;;;;;11.77;8.20;;;;;;;15.86;29.42;98013.19;5050279;28;20535;-73
2021/03/08 11:28:17;;;;;;;11.73;7.15;;;;;;;14.37;30.98;98011.78;5050352;28;20028;-74
2021/03/08 11:30:45;;;;;;;16.50;7.53;;;;;;;12.86;34.33;98010.88;5050233;28;20033;-74
2021/03/08 11:33:11;;;;;;;12.27;8.20;;;;;;;12.59;34.90;97999.94;5050633;28;20021;-74
2021/03/08 11:35:39;;;;;;;11.13;7.72;;;;;;;12.16;35.39;98001.38;5048750;28;20032;-73
2021/03/08 11:38:06;;;;;;;14.32;9.45;;;;;;;11.61;36.69;97992.25;5048760;28;20459;-79
2021/03/08 11:40:34;;;;;;;11.30;6.97;;;;;;;11.23;37.45;97995.09;5050632;28;20083;-74